createdAt,value
2018-02-25T00:00:48.122Z,1022.49
2018-02-25T00:01:48.242Z,1022.48
2018-02-25T00:02:48.259Z,1022.53
2018-02-25T00:03:48.177Z,1022.50
2018-02-25T00:04:48.206Z,1022.50
2018-02-25T00:05:48.249Z,1022.49
2018-02-25T00:06:48.583Z,1022.41
2018-02-25T00:07:48.298Z,1022.50
2018-02-25T00:08:48.330Z,1022.48
2018-02-25T00:09:48.373Z,1022.50
2018-02-25T00:10:48.378Z,1022.55
2018-02-25T00:11:48.426Z,1022.56
2018-02-25T00:12:48.455Z,1022.53
2018-02-25T00:13:48.746Z,1022.55
2018-02-25T00:14:48.496Z,1022.54
2018-02-25T00:15:48.546Z,1022.57
2018-02-25T00:16:48.575Z,1022.56
2018-02-25T00:17:48.602Z,1022.60
2018-02-25T00:18:48.632Z,1022.62
2018-02-25T00:19:48.666Z,1022.63
2018-02-25T00:20:48.931Z,1022.64
2018-02-25T00:21:48.703Z,1022.62
2018-02-25T00:22:48.751Z,1022.62
2018-02-25T00:23:48.779Z,1022.66
2018-02-25T00:24:48.819Z,1022.67
2018-02-25T00:25:48.838Z,1022.68
2018-02-25T00:26:48.854Z,1022.69
2018-02-25T00:27:49.148Z,1022.70
2018-02-25T00:28:48.927Z,1022.70
2018-02-25T00:29:48.944Z,1022.71
2018-02-25T00:30:48.985Z,1022.64
2018-02-25T00:31:49.016Z,1022.72
2018-02-25T00:32:49.028Z,1022.71
2018-02-25T00:33:49.075Z,1022.72
2018-02-25T00:34:49.405Z,1022.78
2018-02-25T00:35:49.141Z,1022.83
2018-02-25T00:36:49.166Z,1022.78
2018-02-25T00:37:49.193Z,1022.75
2018-02-25T00:38:49.209Z,1022.84
2018-02-25T00:39:49.252Z,1022.81
2018-02-25T00:40:49.287Z,1022.80
2018-02-25T00:41:49.592Z,1022.86
2018-02-25T00:42:49.331Z,1022.89
2018-02-25T00:43:49.380Z,1022.88
2018-02-25T00:44:49.379Z,1022.86
2018-02-25T00:45:49.446Z,1022.91
2018-02-25T00:46:49.455Z,1022.91
2018-02-25T00:47:49.486Z,1022.95
2018-02-25T00:48:49.805Z,1022.92
2018-02-25T00:49:49.535Z,1023.04
2018-02-25T00:50:49.555Z,1023.01
2018-02-25T00:51:49.591Z,1023.04
2018-02-25T00:52:49.616Z,1023.04
2018-02-25T00:53:49.661Z,1023.01
2018-02-25T00:54:49.676Z,1022.98
2018-02-25T00:55:49.976Z,1022.93
2018-02-25T00:56:49.733Z,1022.96
2018-02-25T00:57:49.784Z,1022.97
2018-02-25T00:58:49.809Z,1022.98
2018-02-25T00:59:49.824Z,1022.99
2018-02-25T01:00:49.868Z,1022.98
2018-02-25T01:01:50.181Z,1022.98
2018-02-25T01:02:49.911Z,1023.01
2018-02-25T01:03:49.957Z,1022.97
2018-02-25T01:04:49.983Z,1022.97
2018-02-25T01:05:50.000Z,1022.95
2018-02-25T01:06:50.028Z,1022.98
2018-02-25T01:07:50.373Z,1023.03
2018-02-25T01:08:50.203Z,1022.99
2018-02-25T01:09:50.133Z,1023.01
2018-02-25T01:10:50.144Z,1023.07
2018-02-25T01:11:50.177Z,1023.07
2018-02-25T01:12:50.238Z,1023.06
2018-02-25T01:13:50.553Z,1023.09
2018-02-25T01:14:50.363Z,1023.11
2018-02-25T01:15:50.311Z,1023.09
2018-02-25T01:16:50.321Z,1023.06
2018-02-25T01:17:50.351Z,1023.04
2018-02-25T01:18:50.398Z,1023.08
2018-02-25T01:19:50.710Z,1023.05
2018-02-25T01:20:50.438Z,1023.07
2018-02-25T01:21:50.467Z,1023.05
2018-02-25T01:22:50.495Z,1023.04
2018-02-25T01:23:50.544Z,1023.05
2018-02-25T01:24:50.555Z,1022.99
2018-02-25T01:25:50.939Z,1023.02
2018-02-25T01:26:50.614Z,1023.03
2018-02-25T01:27:50.681Z,1023.04
2018-02-25T01:28:50.691Z,1023.07
2018-02-25T01:29:50.707Z,1022.98
2018-02-25T01:30:50.735Z,1023.06
2018-02-25T01:31:51.085Z,1023.07
2018-02-25T01:32:50.788Z,1023.10
2018-02-25T01:33:50.838Z,1023.11
2018-02-25T01:34:50.850Z,1023.13
2018-02-25T01:35:50.896Z,1023.14
2018-02-25T01:36:50.923Z,1023.13
2018-02-25T01:37:51.238Z,1023.14
2018-02-25T01:38:50.965Z,1023.11
2018-02-25T01:39:50.996Z,1023.15
2018-02-25T01:40:51.043Z,1023.12
2018-02-25T01:41:51.056Z,1023.10
2018-02-25T01:42:51.098Z,1023.10
2018-02-25T01:43:51.429Z,1023.13
2018-02-25T01:44:51.157Z,1023.15
2018-02-25T01:45:51.188Z,1023.13
2018-02-25T01:46:51.202Z,1023.13
2018-02-25T01:47:51.228Z,1023.13
2018-02-25T01:48:51.278Z,1023.13
2018-02-25T01:49:51.591Z,1023.07
2018-02-25T01:50:51.333Z,1023.09
2018-02-25T01:51:51.347Z,1023.09
2018-02-25T01:52:51.400Z,1023.08
2018-02-25T01:53:51.435Z,1023.07
2018-02-25T01:54:51.438Z,1023.10
2018-02-25T01:55:51.770Z,1023.06
2018-02-25T01:56:51.512Z,1023.11
2018-02-25T01:57:51.542Z,1023.13
2018-02-25T01:58:51.555Z,1023.03
2018-02-25T01:59:51.580Z,1023.11
2018-02-25T02:00:51.713Z,1023.10
2018-02-25T02:01:51.910Z,1023.10
2018-02-25T02:02:51.671Z,1023.07
2018-02-25T02:03:51.718Z,1023.09
2018-02-25T02:04:51.728Z,1023.07
2018-02-25T02:05:51.756Z,1023.10
2018-02-25T02:06:51.787Z,1023.06
2018-02-25T02:07:52.121Z,1023.08
2018-02-25T02:08:51.880Z,1023.09
2018-02-25T02:09:51.875Z,1023.13
2018-02-25T02:10:51.925Z,1023.09
2018-02-25T02:11:51.950Z,1023.08
2018-02-25T02:12:51.980Z,1023.08
2018-02-25T02:13:51.998Z,1023.08
2018-02-25T02:14:52.287Z,1023.04
2018-02-25T02:15:52.068Z,1023.07
2018-02-25T02:16:52.079Z,1023.01
2018-02-25T02:17:52.111Z,1023.07
2018-02-25T02:18:52.209Z,1023.04
2018-02-25T02:19:52.203Z,1023.08
2018-02-25T02:20:52.226Z,1023.07
2018-02-25T02:21:52.527Z,1023.10
2018-02-25T02:22:52.253Z,1023.09
2018-02-25T02:23:52.359Z,1023.10
2018-02-25T02:24:52.314Z,1023.09
2018-02-25T02:25:52.411Z,1023.12
2018-02-25T02:26:52.399Z,1023.14
2018-02-25T02:27:52.401Z,1023.11
2018-02-25T02:28:52.682Z,1023.14
2018-02-25T02:29:52.503Z,1023.13
2018-02-25T02:30:52.512Z,1023.12
2018-02-25T02:31:52.624Z,1023.12
2018-02-25T02:32:52.570Z,1023.14
2018-02-25T02:33:52.602Z,1023.12
2018-02-25T02:34:52.607Z,1023.14
2018-02-25T02:35:52.897Z,1023.09
2018-02-25T02:36:52.687Z,1023.12
2018-02-25T02:37:52.746Z,1023.15
2018-02-25T02:38:52.742Z,1023.09
2018-02-25T02:39:52.882Z,1023.13
2018-02-25T02:40:52.800Z,1023.12
2018-02-25T02:41:52.829Z,1023.14
2018-02-25T02:42:53.184Z,1023.18
2018-02-25T02:43:52.872Z,1023.17
2018-02-25T02:44:53.000Z,1023.19
2018-02-25T02:45:52.999Z,1023.20
2018-02-25T02:46:52.976Z,1023.19
2018-02-25T02:47:53.037Z,1023.19
2018-02-25T02:48:53.034Z,1023.18
2018-02-25T02:49:53.417Z,1023.19
2018-02-25T02:50:53.144Z,1023.19
2018-02-25T02:51:53.109Z,1023.24
2018-02-25T02:52:53.171Z,1023.28
2018-02-25T02:53:53.164Z,1023.31
2018-02-25T02:54:53.194Z,1023.27
2018-02-25T02:55:53.239Z,1023.29
2018-02-25T02:56:53.569Z,1023.29
2018-02-25T02:57:53.334Z,1023.30
2018-02-25T02:58:53.326Z,1023.28
2018-02-25T02:59:53.344Z,1023.27
2018-02-25T03:00:53.367Z,1023.31
2018-02-25T03:01:53.474Z,1023.33
2018-02-25T03:02:53.432Z,1023.30
2018-02-25T03:03:53.726Z,1023.32
2018-02-25T03:04:53.537Z,1023.34
2018-02-25T03:05:53.520Z,1023.36
2018-02-25T03:06:53.545Z,1023.35
2018-02-25T03:07:53.626Z,1023.33
2018-02-25T03:08:53.620Z,1023.40
2018-02-25T03:09:53.633Z,1023.37
2018-02-25T03:10:53.992Z,1023.41
2018-02-25T03:11:53.712Z,1023.38
2018-02-25T03:12:53.750Z,1023.41
2018-02-25T03:13:53.750Z,1023.42
2018-02-25T03:14:53.841Z,1023.43
2018-02-25T03:15:53.835Z,1023.41
2018-02-25T03:16:53.849Z,1023.38
2018-02-25T03:17:54.115Z,1023.34
2018-02-25T03:18:54.086Z,1023.37
2018-02-25T03:19:53.930Z,1023.39
2018-02-25T03:20:53.951Z,1023.36
2018-02-25T03:21:54.059Z,1023.35
2018-02-25T03:22:54.049Z,1023.34
2018-02-25T03:23:54.056Z,1023.33
2018-02-25T03:24:54.739Z,1023.29
2018-02-25T03:25:54.191Z,1023.31
2018-02-25T03:26:54.132Z,1023.39
2018-02-25T03:27:54.208Z,1023.38
2018-02-25T03:28:54.206Z,1023.39
2018-02-25T03:29:54.368Z,1023.45
2018-02-25T03:30:54.268Z,1023.45
2018-02-25T03:31:54.577Z,1023.46
2018-02-25T03:32:54.302Z,1023.45
2018-02-25T03:33:54.429Z,1023.45
2018-02-25T03:34:54.359Z,1023.48
2018-02-25T03:35:54.408Z,1023.42
2018-02-25T03:36:54.450Z,1023.44
2018-02-25T03:37:54.751Z,1023.40
2018-02-25T03:38:54.486Z,1023.38
2018-02-25T03:39:54.586Z,1023.40
2018-02-25T03:40:54.542Z,1023.44
2018-02-25T03:41:54.586Z,1023.39
2018-02-25T03:42:54.650Z,1023.42
2018-02-25T03:43:54.941Z,1023.43
2018-02-25T03:44:54.655Z,1023.42
2018-02-25T03:45:54.704Z,1023.46
2018-02-25T03:46:54.835Z,1023.43
2018-02-25T03:47:54.740Z,1023.45
2018-02-25T03:48:54.769Z,1023.45
2018-02-25T03:49:55.128Z,1023.44
2018-02-25T03:50:54.993Z,1023.49
2018-02-25T03:51:54.861Z,1023.45
2018-02-25T03:52:54.886Z,1023.48
2018-02-25T03:53:54.934Z,1023.53
2018-02-25T03:54:54.962Z,1023.51
2018-02-25T03:55:55.226Z,1023.50
2018-02-25T03:56:55.011Z,1023.48
2018-02-25T03:57:55.038Z,1023.49
2018-02-25T03:58:55.064Z,1023.46
2018-02-25T03:59:55.129Z,1023.50
2018-02-25T04:00:55.121Z,1023.51
2018-02-25T04:01:55.470Z,1023.50
2018-02-25T04:02:55.181Z,1023.54
2018-02-25T04:03:55.213Z,1023.58
2018-02-25T04:04:55.289Z,1023.57
2018-02-25T04:05:55.285Z,1023.58
2018-02-25T04:06:55.301Z,1023.58
2018-02-25T04:07:55.591Z,1023.59
2018-02-25T04:08:55.371Z,1023.60
2018-02-25T04:09:55.423Z,1023.60
2018-02-25T04:10:55.415Z,1023.67
2018-02-25T04:11:55.763Z,1023.65
2018-02-25T04:12:55.518Z,1023.67
2018-02-25T04:13:55.834Z,1023.64
2018-02-25T04:14:55.619Z,1023.66
2018-02-25T04:15:55.564Z,1023.67
2018-02-25T04:16:55.587Z,1023.64
2018-02-25T04:17:55.647Z,1023.67
2018-02-25T04:18:55.645Z,1023.70
2018-02-25T04:19:55.996Z,1023.68
2018-02-25T04:20:55.746Z,1023.70
2018-02-25T04:21:55.751Z,1023.73
2018-02-25T04:22:55.782Z,1023.74
2018-02-25T04:23:55.807Z,1023.72
2018-02-25T04:24:55.832Z,1023.70
2018-02-25T04:25:56.117Z,1023.73
2018-02-25T04:26:55.921Z,1023.76
2018-02-25T04:27:55.965Z,1023.74
2018-02-25T04:28:55.959Z,1023.76
2018-02-25T04:29:55.985Z,1023.76
2018-02-25T04:30:56.016Z,1023.76
2018-02-25T04:31:56.355Z,1023.79
2018-02-25T04:32:56.071Z,1023.84
2018-02-25T04:33:56.100Z,1023.84
2018-02-25T04:34:56.175Z,1023.87
2018-02-25T04:35:56.151Z,1023.91
2018-02-25T04:36:56.204Z,1024.01
2018-02-25T04:37:56.532Z,1023.98
2018-02-25T04:38:56.263Z,1023.99
2018-02-25T04:39:56.315Z,1024.02
2018-02-25T04:40:56.360Z,1024.00
2018-02-25T04:41:56.338Z,1023.98
2018-02-25T04:42:56.378Z,1024.03
2018-02-25T04:43:56.462Z,1024.01
2018-02-25T04:44:56.691Z,1024.05
2018-02-25T04:45:56.450Z,1024.06
2018-02-25T04:46:56.463Z,1024.07
2018-02-25T04:47:56.560Z,1024.07
2018-02-25T04:48:56.542Z,1024.08
2018-02-25T04:49:56.571Z,1024.06
2018-02-25T04:50:56.598Z,1024.09
2018-02-25T04:51:56.877Z,1024.12
2018-02-25T04:52:56.664Z,1024.14
2018-02-25T04:53:56.844Z,1024.12
2018-02-25T04:54:56.730Z,1024.17
2018-02-25T04:55:56.745Z,1024.15
2018-02-25T04:56:56.791Z,1024.14
2018-02-25T04:57:56.841Z,1024.18
2018-02-25T04:58:57.139Z,1024.19
2018-02-25T04:59:56.910Z,1024.20
2018-02-25T05:00:56.880Z,1024.22
2018-02-25T05:01:56.917Z,1024.23
2018-02-25T05:02:56.971Z,1024.25
2018-02-25T05:03:57.022Z,1024.20
2018-02-25T05:04:57.021Z,1024.21
2018-02-25T05:05:57.323Z,1024.25
2018-02-25T05:06:57.043Z,1024.25
2018-02-25T05:07:57.145Z,1024.27
2018-02-25T05:08:57.123Z,1024.23
2018-02-25T05:09:57.152Z,1024.26
2018-02-25T05:10:57.182Z,1024.26
2018-02-25T05:11:57.265Z,1024.24
2018-02-25T05:12:57.540Z,1024.27
2018-02-25T05:13:57.248Z,1024.30
2018-02-25T05:14:57.323Z,1024.29
2018-02-25T05:15:57.319Z,1024.29
2018-02-25T05:16:57.336Z,1024.31
2018-02-25T05:17:57.417Z,1024.40
2018-02-25T05:18:57.412Z,1024.37
2018-02-25T05:19:57.696Z,1024.40
2018-02-25T05:20:57.451Z,1024.43
2018-02-25T05:21:57.601Z,1024.43
2018-02-25T05:22:57.543Z,1024.39
2018-02-25T05:23:57.544Z,1024.45
2018-02-25T05:24:57.632Z,1024.42
2018-02-25T05:25:57.624Z,1024.45
2018-02-25T05:26:57.970Z,1024.47
2018-02-25T05:27:57.798Z,1024.52
2018-02-25T05:28:57.685Z,1024.51
2018-02-25T05:29:57.732Z,1024.53
2018-02-25T05:30:57.753Z,1024.50
2018-02-25T05:31:57.771Z,1024.54
2018-02-25T05:32:57.860Z,1024.53
2018-02-25T05:33:58.149Z,1024.55
2018-02-25T05:34:57.899Z,1024.54
2018-02-25T05:35:57.968Z,1024.51
2018-02-25T05:36:57.935Z,1024.51
2018-02-25T05:37:57.968Z,1024.50
2018-02-25T05:38:57.973Z,1024.53
2018-02-25T05:39:58.060Z,1024.54
2018-02-25T05:40:58.340Z,1024.55
2018-02-25T05:41:58.083Z,1024.57
2018-02-25T05:42:58.131Z,1024.56
2018-02-25T05:43:58.122Z,1024.53
2018-02-25T05:44:58.149Z,1024.54
2018-02-25T05:45:58.193Z,1024.53
2018-02-25T05:46:58.205Z,1024.50
2018-02-25T05:47:58.591Z,1024.44
2018-02-25T05:48:58.271Z,1024.46
2018-02-25T05:49:58.346Z,1024.48
2018-02-25T05:50:58.343Z,1024.48
2018-02-25T05:51:58.374Z,1024.50
2018-02-25T05:52:58.401Z,1024.52
2018-02-25T05:53:58.549Z,1024.54
2018-02-25T05:54:58.749Z,1024.49
2018-02-25T05:55:58.479Z,1024.50
2018-02-25T05:56:58.500Z,1024.42
2018-02-25T05:57:58.554Z,1024.46
2018-02-25T05:58:58.584Z,1024.45
2018-02-25T05:59:58.988Z,1024.48
2018-02-25T06:00:58.882Z,1024.50
2018-02-25T06:01:58.662Z,1024.47
2018-02-25T06:02:58.746Z,1024.47
2018-02-25T06:03:58.719Z,1024.48
2018-02-25T06:04:58.741Z,1024.41
2018-02-25T06:05:58.761Z,1024.41
2018-02-25T06:06:59.090Z,1024.43
2018-02-25T06:07:58.975Z,1024.44
2018-02-25T06:08:58.887Z,1024.39
2018-02-25T06:09:58.959Z,1024.44
2018-02-25T06:10:58.924Z,1024.45
2018-02-25T06:11:58.953Z,1024.43
2018-02-25T06:12:59.310Z,1024.43
2018-02-25T06:13:58.993Z,1024.46
2018-02-25T06:14:59.045Z,1024.49
2018-02-25T06:15:59.101Z,1024.46
2018-02-25T06:16:59.201Z,1024.51
2018-02-25T06:17:59.137Z,1024.46
2018-02-25T06:18:59.441Z,1024.50
2018-02-25T06:19:59.182Z,1024.47
2018-02-25T06:20:59.218Z,1024.43
2018-02-25T06:21:59.340Z,1024.48
2018-02-25T06:22:59.270Z,1024.49
2018-02-25T06:23:59.303Z,1024.51
2018-02-25T06:24:59.641Z,1024.53
2018-02-25T06:25:59.391Z,1024.52
2018-02-25T06:26:59.372Z,1024.53
2018-02-25T06:27:59.412Z,1024.59
2018-02-25T06:28:59.490Z,1024.58
2018-02-25T06:29:59.478Z,1024.51
2018-02-25T06:30:59.737Z,1024.55
2018-02-25T06:31:59.531Z,1024.51
2018-02-25T06:32:59.602Z,1024.52
2018-02-25T06:33:59.711Z,1024.48
2018-02-25T06:34:59.616Z,1024.47
2018-02-25T06:35:59.657Z,1024.49
2018-02-25T06:36:59.978Z,1024.50
2018-02-25T06:37:59.708Z,1024.49
2018-02-25T06:38:59.755Z,1024.48
2018-02-25T06:39:59.754Z,1024.48
2018-02-25T06:40:59.879Z,1024.48
2018-02-25T06:41:59.809Z,1024.47
2018-02-25T06:43:00.171Z,1024.52
2018-02-25T06:43:59.865Z,1024.48
2018-02-25T06:44:59.896Z,1024.53
2018-02-25T06:45:59.965Z,1024.50
2018-02-25T06:46:59.969Z,1024.55
2018-02-25T06:47:59.981Z,1024.54
2018-02-25T06:49:00.455Z,1024.53
2018-02-25T06:50:00.038Z,1024.55
2018-02-25T06:51:00.090Z,1024.54
2018-02-25T06:52:00.152Z,1024.56
2018-02-25T06:53:00.179Z,1024.55
2018-02-25T06:54:00.156Z,1024.58
2018-02-25T06:55:00.512Z,1024.60
2018-02-25T06:56:00.218Z,1024.63
2018-02-25T06:57:00.290Z,1024.64
2018-02-25T06:58:00.283Z,1024.62
2018-02-25T06:59:00.323Z,1024.64
2018-02-25T07:00:00.435Z,1024.65
2018-02-25T07:01:00.611Z,1024.69
2018-02-25T07:02:00.474Z,1024.69
2018-02-25T07:03:00.488Z,1024.72
2018-02-25T07:04:00.466Z,1024.74
2018-02-25T07:05:00.487Z,1024.72
2018-02-25T07:06:00.504Z,1024.74
2018-02-25T07:07:00.922Z,1024.75
2018-02-25T07:08:00.593Z,1024.77
2018-02-25T07:09:00.624Z,1024.76
2018-02-25T07:10:00.721Z,1024.79
2018-02-25T07:11:00.681Z,1024.78
2018-02-25T07:12:00.730Z,1024.76
2018-02-25T07:13:00.960Z,1024.80
2018-02-25T07:14:00.736Z,1024.82
2018-02-25T07:15:00.879Z,1024.83
2018-02-25T07:16:00.835Z,1024.87
2018-02-25T07:17:00.842Z,1024.87
2018-02-25T07:18:00.853Z,1024.87
2018-02-25T07:19:00.885Z,1024.89
2018-02-25T07:20:01.236Z,1024.93
2018-02-25T07:21:00.959Z,1024.92
2018-02-25T07:22:00.977Z,1024.94
2018-02-25T07:23:01.026Z,1024.97
2018-02-25T07:24:01.091Z,1024.98
2018-02-25T07:25:01.147Z,1024.98
2018-02-25T07:26:01.100Z,1024.98
2018-02-25T07:27:01.386Z,1025.02
2018-02-25T07:28:01.166Z,1025.00
2018-02-25T07:29:01.191Z,1025.05
2018-02-25T07:30:01.205Z,1025.00
2018-02-25T07:31:01.252Z,1025.03
2018-02-25T07:32:01.278Z,1025.03
2018-02-25T07:33:01.628Z,1025.03
2018-02-25T07:34:01.649Z,1025.05
2018-02-25T07:35:01.368Z,1025.08
2018-02-25T07:36:01.412Z,1025.06
2018-02-25T07:37:01.408Z,1025.06
2018-02-25T07:38:01.447Z,1025.10
2018-02-25T07:39:01.542Z,1025.09
2018-02-25T07:40:01.515Z,1025.10
2018-02-25T07:41:01.899Z,1025.12
2018-02-25T07:42:01.564Z,1025.10
2018-02-25T07:43:01.596Z,1025.09
2018-02-25T07:44:01.657Z,1025.10
2018-02-25T07:45:01.641Z,1025.04
2018-02-25T07:46:01.726Z,1025.02
2018-02-25T07:47:01.733Z,1025.06
2018-02-25T07:48:02.093Z,1025.11
2018-02-25T07:49:01.880Z,1025.03
2018-02-25T07:50:01.805Z,1025.14
2018-02-25T07:51:01.818Z,1025.08
2018-02-25T07:52:02.065Z,1025.13
2018-02-25T07:53:02.017Z,1025.11
2018-02-25T07:54:01.906Z,1025.12
2018-02-25T07:55:02.187Z,1025.09
2018-02-25T07:56:01.968Z,1025.11
2018-02-25T07:57:02.013Z,1025.15
2018-02-25T07:58:02.045Z,1025.14
2018-02-25T07:59:02.078Z,1025.12
2018-02-25T08:00:02.083Z,1025.14
2018-02-25T08:01:02.115Z,1025.13
2018-02-25T08:02:02.490Z,1025.14
2018-02-25T08:03:02.175Z,1025.16
2018-02-25T08:04:02.221Z,1025.19
2018-02-25T08:05:02.263Z,1025.20
2018-02-25T08:06:02.277Z,1025.21
2018-02-25T08:07:02.287Z,1025.20
2018-02-25T08:08:02.334Z,1025.23
2018-02-25T08:09:02.605Z,1025.22
2018-02-25T08:10:02.399Z,1025.21
2018-02-25T08:11:02.422Z,1025.24
2018-02-25T08:12:02.453Z,1025.24
2018-02-25T08:13:02.463Z,1025.26
2018-02-25T08:14:02.514Z,1025.24
2018-02-25T08:15:02.522Z,1025.23
2018-02-25T08:16:02.576Z,1025.23
2018-02-25T08:17:02.597Z,1025.24
2018-02-25T08:18:02.654Z,1025.23
2018-02-25T08:19:02.669Z,1025.22
2018-02-25T08:20:02.680Z,1025.25
2018-02-25T08:21:02.725Z,1025.28
2018-02-25T08:22:02.980Z,1025.25
2018-02-25T08:23:02.758Z,1025.27
2018-02-25T08:24:02.789Z,1025.29
2018-02-25T08:25:02.856Z,1025.28
2018-02-25T08:26:02.849Z,1025.30
2018-02-25T08:27:02.897Z,1025.31
2018-02-25T08:28:02.923Z,1025.30
2018-02-25T08:29:03.236Z,1025.28
2018-02-25T08:30:02.980Z,1025.26
2018-02-25T08:31:02.992Z,1025.28
2018-02-25T08:32:03.025Z,1025.29
2018-02-25T08:33:03.056Z,1025.30
2018-02-25T08:34:03.093Z,1025.34
2018-02-25T08:35:03.368Z,1025.36
2018-02-25T08:36:03.157Z,1025.34
2018-02-25T08:37:03.237Z,1025.26
2018-02-25T08:38:03.210Z,1025.33
2018-02-25T08:39:03.251Z,1025.30
2018-02-25T08:40:03.277Z,1025.35
2018-02-25T08:41:03.556Z,1025.30
2018-02-25T08:42:03.336Z,1025.33
2018-02-25T08:43:03.377Z,1025.33
2018-02-25T08:44:03.385Z,1025.33
2018-02-25T08:45:03.479Z,1025.27
2018-02-25T08:46:03.454Z,1025.31
2018-02-25T08:47:03.465Z,1025.31
2018-02-25T08:48:03.494Z,1025.30
2018-02-25T08:49:03.540Z,1025.35
2018-02-25T08:50:03.556Z,1025.32
2018-02-25T08:51:03.581Z,1025.30
2018-02-25T08:52:03.634Z,1025.31
2018-02-25T08:53:03.946Z,1025.27
2018-02-25T08:54:03.689Z,1025.32
2018-02-25T08:55:03.726Z,1025.30
2018-02-25T08:56:03.748Z,1025.34
2018-02-25T08:57:03.767Z,1025.31
2018-02-25T08:58:03.810Z,1025.29
2018-02-25T08:59:04.069Z,1025.31
2018-02-25T09:00:03.866Z,1025.32
2018-02-25T09:01:03.881Z,1025.33
2018-02-25T09:02:03.929Z,1025.30
2018-02-25T09:03:03.954Z,1025.30
2018-02-25T09:04:03.986Z,1025.30
2018-02-25T09:05:04.251Z,1025.35
2018-02-25T09:06:04.027Z,1025.33
2018-02-25T09:07:04.075Z,1025.36
2018-02-25T09:08:04.087Z,1025.41
2018-02-25T09:09:04.128Z,1025.37
2018-02-25T09:10:04.153Z,1025.39
2018-02-25T09:11:04.982Z,1025.41
2018-02-25T09:12:04.229Z,1025.38
2018-02-25T09:13:04.264Z,1025.40
2018-02-25T09:14:04.277Z,1025.39
2018-02-25T09:15:04.545Z,1025.41
2018-02-25T09:16:04.387Z,1025.46
2018-02-25T09:17:04.697Z,1025.42
2018-02-25T09:18:04.400Z,1025.40
2018-02-25T09:19:04.436Z,1025.44
2018-02-25T09:20:04.464Z,1025.45
2018-02-25T09:21:04.482Z,1025.43
2018-02-25T09:22:04.507Z,1025.40
2018-02-25T09:23:04.846Z,1025.45
2018-02-25T09:24:04.565Z,1025.47
2018-02-25T09:25:04.613Z,1025.48
2018-02-25T09:26:04.646Z,1025.48
2018-02-25T09:27:04.650Z,1025.47
2018-02-25T09:28:04.683Z,1025.44
2018-02-25T09:29:04.982Z,1025.47
2018-02-25T09:30:04.747Z,1025.43
2018-02-25T09:31:04.786Z,1025.39
2018-02-25T09:32:04.884Z,1025.41
2018-02-25T09:33:04.829Z,1025.43
2018-02-25T09:34:04.862Z,1025.38
2018-02-25T09:35:05.201Z,1025.37
2018-02-25T09:36:04.979Z,1025.41
2018-02-25T09:37:05.124Z,1025.41
2018-02-25T09:38:05.001Z,1025.37
2018-02-25T09:39:05.028Z,1025.37
2018-02-25T09:40:05.054Z,1025.35
2018-02-25T09:41:05.384Z,1025.36
2018-02-25T09:42:05.096Z,1025.35
2018-02-25T09:43:05.129Z,1025.32
2018-02-25T09:44:05.179Z,1025.34
2018-02-25T09:45:05.215Z,1025.36
2018-02-25T09:46:05.235Z,1025.38
2018-02-25T09:47:05.255Z,1025.32
2018-02-25T09:48:05.275Z,1025.31
2018-02-25T09:49:05.347Z,1025.36
2018-02-25T09:50:05.363Z,1025.34
2018-02-25T09:51:05.362Z,1025.31
2018-02-25T09:52:05.562Z,1025.26
2018-02-25T09:53:05.437Z,1025.29
2018-02-25T09:54:05.773Z,1025.27
2018-02-25T09:55:05.504Z,1025.24
2018-02-25T09:56:05.563Z,1025.31
2018-02-25T09:57:05.575Z,1025.25
2018-02-25T09:58:05.625Z,1025.25
2018-02-25T09:59:05.622Z,1025.27
2018-02-25T10:00:05.638Z,1025.22
2018-02-25T10:01:05.964Z,1025.20
2018-02-25T10:02:05.708Z,1025.17
2018-02-25T10:03:05.894Z,1025.15
2018-02-25T10:04:05.950Z,1025.12
2018-02-25T10:05:05.800Z,1025.20
2018-02-25T10:06:06.130Z,1025.08
2018-02-25T10:07:06.121Z,1025.06
2018-02-25T10:08:06.556Z,1025.03
2018-02-25T10:09:05.949Z,1025.04
2018-02-25T10:10:06.437Z,1025.04
2018-02-25T10:11:06.270Z,1025.01
2018-02-25T10:12:06.378Z,1025.02
2018-02-25T10:13:06.125Z,1024.98
2018-02-25T10:14:06.116Z,1025.01
2018-02-25T10:15:06.382Z,1024.98
2018-02-25T10:16:06.110Z,1024.99
2018-02-25T10:17:06.150Z,1024.98
2018-02-25T10:18:06.200Z,1024.98
2018-02-25T10:19:06.199Z,1024.96
2018-02-25T10:20:06.232Z,1024.94
2018-02-25T10:21:06.276Z,1024.97
2018-02-25T10:22:06.373Z,1024.91
2018-02-25T10:23:06.356Z,1024.94
2018-02-25T10:24:06.454Z,1024.98
2018-02-25T10:25:06.383Z,1024.96
2018-02-25T10:26:06.408Z,1024.94
2018-02-25T10:27:06.440Z,1024.95
2018-02-25T10:28:06.890Z,1024.95
2018-02-25T10:29:06.546Z,1024.94
2018-02-25T10:30:06.786Z,1024.95
2018-02-25T10:31:06.613Z,1024.96
2018-02-25T10:32:06.605Z,1024.98
2018-02-25T10:33:06.635Z,1024.92
2018-02-25T10:34:06.686Z,1024.90
2018-02-25T10:35:06.982Z,1024.93
2018-02-25T10:36:06.709Z,1024.91
2018-02-25T10:37:06.738Z,1024.93
2018-02-25T10:38:06.911Z,1024.88
2018-02-25T10:39:06.795Z,1024.89
2018-02-25T10:40:06.962Z,1024.90
2018-02-25T10:41:06.859Z,1024.86
2018-02-25T10:42:07.155Z,1024.91
2018-02-25T10:43:06.942Z,1024.86
2018-02-25T10:44:06.960Z,1024.89
2018-02-25T10:45:06.997Z,1024.85
2018-02-25T10:46:07.026Z,1024.87
2018-02-25T10:47:07.036Z,1024.80
2018-02-25T10:48:07.122Z,1024.88
2018-02-25T10:49:07.399Z,1024.84
2018-02-25T10:50:07.155Z,1024.85
2018-02-25T10:51:07.310Z,1024.87
2018-02-25T10:52:07.216Z,1024.86
2018-02-25T10:53:07.246Z,1024.89
2018-02-25T10:54:07.246Z,1024.89
2018-02-25T10:55:07.326Z,1024.86
2018-02-25T10:56:07.607Z,1024.85
2018-02-25T10:57:07.352Z,1024.88
2018-02-25T10:58:07.382Z,1024.83
2018-02-25T10:59:07.413Z,1024.85
2018-02-25T11:00:07.434Z,1024.85
2018-02-25T11:01:07.472Z,1024.87
2018-02-25T11:02:07.791Z,1024.84
2018-02-25T11:03:07.524Z,1024.83
2018-02-25T11:04:07.610Z,1024.82
2018-02-25T11:05:07.596Z,1024.83
2018-02-25T11:06:07.622Z,1024.84
2018-02-25T11:07:07.638Z,1024.80
2018-02-25T11:08:08.020Z,1024.79
2018-02-25T11:09:07.928Z,1024.79
2018-02-25T11:10:08.427Z,1024.77
2018-02-25T11:11:07.969Z,1024.75
2018-02-25T11:12:07.941Z,1024.78
2018-02-25T11:13:07.870Z,1024.73
2018-02-25T11:14:07.885Z,1024.68
2018-02-25T11:15:07.948Z,1024.69
2018-02-25T11:17:07.949Z,1024.66
2018-02-25T11:18:07.971Z,1024.66
2018-02-25T11:19:08.016Z,1024.63
2018-02-25T11:20:08.275Z,1024.58
2018-02-25T11:21:08.066Z,1024.59
2018-02-25T11:22:08.152Z,1024.59
2018-02-25T11:23:08.114Z,1024.53
2018-02-25T11:24:08.193Z,1024.52
2018-02-25T11:25:08.402Z,1024.51
2018-02-25T11:26:08.514Z,1024.45
2018-02-25T11:27:08.231Z,1024.46
2018-02-25T11:28:08.263Z,1024.47
2018-02-25T11:29:08.314Z,1024.46
2018-02-25T11:30:08.346Z,1024.45
2018-02-25T11:31:08.368Z,1024.43
2018-02-25T11:32:08.906Z,1024.41
2018-02-25T11:33:08.437Z,1024.42
2018-02-25T11:34:08.450Z,1024.41
2018-02-25T11:35:08.498Z,1024.37
2018-02-25T11:36:08.569Z,1024.36
2018-02-25T11:37:08.554Z,1024.30
2018-02-25T11:38:08.884Z,1024.31
2018-02-25T11:39:08.619Z,1024.30
2018-02-25T11:40:08.621Z,1024.31
2018-02-25T11:41:08.688Z,1024.26
2018-02-25T11:42:08.691Z,1024.21
2018-02-25T11:43:08.713Z,1024.20
2018-02-25T11:44:08.991Z,1024.19
2018-02-25T11:45:08.804Z,1024.18
2018-02-25T11:46:08.802Z,1024.14
2018-02-25T11:47:08.855Z,1024.10
2018-02-25T11:48:08.870Z,1024.12
2018-02-25T11:49:08.918Z,1024.11
2018-02-25T11:50:09.244Z,1024.05
2018-02-25T11:51:08.993Z,1024.02
2018-02-25T11:52:09.004Z,1024.03
2018-02-25T11:53:09.082Z,1023.98
2018-02-25T11:54:09.115Z,1023.98
2018-02-25T11:55:09.076Z,1024.01
2018-02-25T11:56:09.418Z,1023.98
2018-02-25T11:57:09.132Z,1023.93
2018-02-25T11:58:09.164Z,1023.98
2018-02-25T11:59:09.199Z,1023.90
2018-02-25T12:00:09.227Z,1023.93
2018-02-25T12:01:09.285Z,1023.91
2018-02-25T12:02:09.602Z,1023.91
2018-02-25T12:03:09.328Z,1023.86
2018-02-25T12:04:09.348Z,1023.84
2018-02-25T12:05:09.381Z,1023.85
2018-02-25T12:06:09.409Z,1023.86
2018-02-25T12:07:09.452Z,1023.85